sensor_id;sensor_type;location;lat;lon;timestamp;pressure;altitude;pressure_sealevel;temperature
81657;BMP280;71067;51.482;-0.580;2024-01-30T00:01:53;101912.09;;;13.44
81657;BMP280;71067;51.482;-0.580;2024-01-30T00:04:19;101910.19;;;13.46
81657;BMP280;71067;51.482;-0.580;2024-01-30T00:06:45;101916.22;;;13.46
81657;BMP280;71067;51.482;-0.580;2024-01-30T00:09:10;101911.13;;;13.45
81657;BMP280;71067;51.482;-0.580;2024-01-30T00:11:38;101914.56;;;13.45
81657;BMP280;71067;51.482;-0.580;2024-01-30T00:14:04;101904.31;;;13.44
81657;BMP280;71067;51.482;-0.580;2024-01-30T00:16:30;101890.25;;;13.37
81657;BMP280;71067;51.482;-0.580;2024-01-30T00:18:55;101913.25;;;13.41
81657;BMP280;71067;51.482;-0.580;2024-01-30T00:21:21;101924.75;;;13.39
81657;BMP280;71067;51.482;-0.580;2024-01-30T00:23:47;101907.22;;;13.23
81657;BMP280;71067;51.482;-0.580;2024-01-30T00:26:13;101922.59;;;13.34
81657;BMP280;71067;51.482;-0.580;2024-01-30T00:28:42;101910.63;;;13.24
81657;BMP280;71067;51.482;-0.580;2024-01-30T00:31:08;101927.56;;;13.28
81657;BMP280;71067;51.482;-0.580;2024-01-30T00:33:38;101919.69;;;13.20
81657;BMP280;71067;51.482;-0.580;2024-01-30T00:36:03;101916.25;;;13.19
81657;BMP280;71067;51.482;-0.580;2024-01-30T00:38:29;101915.59;;;13.17
81657;BMP280;71067;51.482;-0.580;2024-01-30T00:40:54;101931.66;;;13.13
81657;BMP280;71067;51.482;-0.580;2024-01-30T00:43:19;101915.59;;;13.00
81657;BMP280;71067;51.482;-0.580;2024-01-30T00:45:46;101914.59;;;13.01
81657;BMP280;71067;51.482;-0.580;2024-01-30T00:48:11;101903.41;;;13.00
81657;BMP280;71067;51.482;-0.580;2024-01-30T00:50:37;101894.41;;;12.94
81657;BMP280;71067;51.482;-0.580;2024-01-30T00:53:02;101893.06;;;12.90
81657;BMP280;71067;51.482;-0.580;2024-01-30T00:55:27;101895.81;;;12.89
81657;BMP280;71067;51.482;-0.580;2024-01-30T00:57:53;101913.72;;;12.92
81657;BMP280;71067;51.482;-0.580;2024-01-30T01:00:18;101906.31;;;12.97
81657;BMP280;71067;51.482;-0.580;2024-01-30T01:02:46;101910.59;;;12.88
81657;BMP280;71067;51.482;-0.580;2024-01-30T01:05:11;101884.84;;;12.68
81657;BMP280;71067;51.482;-0.580;2024-01-30T01:07:36;101908.19;;;12.77
81657;BMP280;71067;51.482;-0.580;2024-01-30T01:10:02;101926.22;;;12.79
81657;BMP280;71067;51.482;-0.580;2024-01-30T01:12:28;101888.63;;;12.46
81657;BMP280;71067;51.482;-0.580;2024-01-30T01:14:53;101921.22;;;12.68
81657;BMP280;71067;51.482;-0.580;2024-01-30T01:17:18;101919.19;;;12.62
81657;BMP280;71067;51.482;-0.580;2024-01-30T01:19:44;101915.91;;;12.60
81657;BMP280;71067;51.482;-0.580;2024-01-30T01:22:09;101920.84;;;12.53
81657;BMP280;71067;51.482;-0.580;2024-01-30T01:24:35;101917.59;;;12.51
81657;BMP280;71067;51.482;-0.580;2024-01-30T01:27:01;101927.75;;;12.45
81657;BMP280;71067;51.482;-0.580;2024-01-30T01:29:26;101948.25;;;12.38
81657;BMP280;71067;51.482;-0.580;2024-01-30T01:31:57;101934.63;;;12.36
81657;BMP280;71067;51.482;-0.580;2024-01-30T01:34:22;101930.78;;;12.31
81657;BMP280;71067;51.482;-0.580;2024-01-30T01:36:49;101930.84;;;12.21
81657;BMP280;71067;51.482;-0.580;2024-01-30T01:39:15;101949.69;;;12.23
81657;BMP280;71067;51.482;-0.580;2024-01-30T01:41:41;101939.31;;;12.14
81657;BMP280;71067;51.482;-0.580;2024-01-30T01:44:07;101922.13;;;11.93
81657;BMP280;71067;51.482;-0.580;2024-01-30T01:46:33;101956.53;;;12.05
81657;BMP280;71067;51.482;-0.580;2024-01-30T01:49:00;101942.59;;;11.96
81657;BMP280;71067;51.482;-0.580;2024-01-30T01:51:27;101937.69;;;11.93
81657;BMP280;71067;51.482;-0.580;2024-01-30T01:53:54;101938.38;;;11.95
81657;BMP280;71067;51.482;-0.580;2024-01-30T01:56:20;101923.66;;;11.86
81657;BMP280;71067;51.482;-0.580;2024-01-30T01:58:46;101940.69;;;11.89
81657;BMP280;71067;51.482;-0.580;2024-01-30T02:01:13;101945.88;;;11.89
81657;BMP280;71067;51.482;-0.580;2024-01-30T02:03:39;101946.31;;;11.84
81657;BMP280;71067;51.482;-0.580;2024-01-30T02:06:05;101941.97;;;11.85
81657;BMP280;71067;51.482;-0.580;2024-01-30T02:08:30;101932.81;;;11.81
81657;BMP280;71067;51.482;-0.580;2024-01-30T02:10:55;101946.84;;;11.88
81657;BMP280;71067;51.482;-0.580;2024-01-30T02:13:21;101921.84;;;11.68
81657;BMP280;71067;51.482;-0.580;2024-01-30T02:15:51;101944.94;;;11.80
81657;BMP280;71067;51.482;-0.580;2024-01-30T02:18:16;101941.81;;;11.77
81657;BMP280;71067;51.482;-0.580;2024-01-30T02:20:41;101922.94;;;11.75
81657;BMP280;71067;51.482;-0.580;2024-01-30T02:23:09;101922.00;;;11.76
81657;BMP280;71067;51.482;-0.580;2024-01-30T02:25:39;101910.25;;;11.62
81657;BMP280;71067;51.482;-0.580;2024-01-30T02:28:09;101942.63;;;11.68
81657;BMP280;71067;51.482;-0.580;2024-01-30T02:30:34;101949.56;;;11.67
81657;BMP280;71067;51.482;-0.580;2024-01-30T02:33:00;101941.13;;;11.56
81657;BMP280;71067;51.482;-0.580;2024-01-30T02:35:25;101947.53;;;11.61
81657;BMP280;71067;51.482;-0.580;2024-01-30T02:37:50;101946.72;;;11.61
81657;BMP280;71067;51.482;-0.580;2024-01-30T02:40:16;101928.00;;;11.48
81657;BMP280;71067;51.482;-0.580;2024-01-30T02:42:41;101937.84;;;11.54
81657;BMP280;71067;51.482;-0.580;2024-01-30T02:45:07;101947.25;;;11.55
81657;BMP280;71067;51.482;-0.580;2024-01-30T02:47:33;101921.19;;;11.37
81657;BMP280;71067;51.482;-0.580;2024-01-30T02:49:58;101943.97;;;11.53
81657;BMP280;71067;51.482;-0.580;2024-01-30T02:52:24;101948.63;;;11.49
81657;BMP280;71067;51.482;-0.580;2024-01-30T02:54:49;101923.22;;;11.34
81657;BMP280;71067;51.482;-0.580;2024-01-30T02:57:14;101942.44;;;11.31
81657;BMP280;71067;51.482;-0.580;2024-01-30T02:59:40;101954.06;;;11.37
81657;BMP280;71067;51.482;-0.580;2024-01-30T03:02:05;101954.63;;;11.40
81657;BMP280;71067;51.482;-0.580;2024-01-30T03:04:30;101950.09;;;11.33
81657;BMP280;71067;51.482;-0.580;2024-01-30T03:06:56;101950.09;;;11.33
81657;BMP280;71067;51.482;-0.580;2024-01-30T03:09:21;101935.59;;;11.21
81657;BMP280;71067;51.482;-0.580;2024-01-30T03:11:46;101943.38;;;11.21
81657;BMP280;71067;51.482;-0.580;2024-01-30T03:14:12;101935.75;;;11.19
81657;BMP280;71067;51.482;-0.580;2024-01-30T03:16:37;101943.94;;;11.15
81657;BMP280;71067;51.482;-0.580;2024-01-30T03:19:03;101953.91;;;11.19
81657;BMP280;71067;51.482;-0.580;2024-01-30T03:21:29;101946.22;;;11.18
81657;BMP280;71067;51.482;-0.580;2024-01-30T03:23:54;101941.72;;;11.10
81657;BMP280;71067;51.482;-0.580;2024-01-30T03:26:19;101949.13;;;11.15
81657;BMP280;71067;51.482;-0.580;2024-01-30T03:28:45;101953.59;;;11.13
81657;BMP280;71067;51.482;-0.580;2024-01-30T03:31:10;101944.53;;;11.07
81657;BMP280;71067;51.482;-0.580;2024-01-30T03:33:36;101953.16;;;11.07
81657;BMP280;71067;51.482;-0.580;2024-01-30T03:36:05;101961.09;;;11.06
81657;BMP280;71067;51.482;-0.580;2024-01-30T03:38:30;101934.31;;;10.96
81657;BMP280;71067;51.482;-0.580;2024-01-30T03:40:58;101941.97;;;11.07
81657;BMP280;71067;51.482;-0.580;2024-01-30T03:43:24;101946.06;;;11.09
81657;BMP280;71067;51.482;-0.580;2024-01-30T03:45:49;101945.28;;;11.09
81657;BMP280;71067;51.482;-0.580;2024-01-30T03:48:14;101937.34;;;11.01
81657;BMP280;71067;51.482;-0.580;2024-01-30T03:50:39;101932.66;;;10.95
81657;BMP280;71067;51.482;-0.580;2024-01-30T03:53:05;101941.19;;;11.07
81657;BMP280;71067;51.482;-0.580;2024-01-30T03:55:30;101941.44;;;11.03
81657;BMP280;71067;51.482;-0.580;2024-01-30T03:57:55;101948.13;;;11.06
81657;BMP280;71067;51.482;-0.580;2024-01-30T04:00:21;101946.63;;;11.03
81657;BMP280;71067;51.482;-0.580;2024-01-30T04:02:46;101951.38;;;11.08
81657;BMP280;71067;51.482;-0.580;2024-01-30T04:05:11;101932.84;;;11.03
81657;BMP280;71067;51.482;-0.580;2024-01-30T04:07:37;101934.59;;;11.02
81657;BMP280;71067;51.482;-0.580;2024-01-30T04:10:02;101947.13;;;11.07
81657;BMP280;71067;51.482;-0.580;2024-01-30T04:12:31;101945.38;;;11.07
81657;BMP280;71067;51.482;-0.580;2024-01-30T04:14:56;101945.78;;;11.03
81657;BMP280;71067;51.482;-0.580;2024-01-30T04:17:22;101960.00;;;11.08
81657;BMP280;71067;51.482;-0.580;2024-01-30T04:19:47;101950.16;;;11.02
81657;BMP280;71067;51.482;-0.580;2024-01-30T04:22:12;101948.25;;;11.04
81657;BMP280;71067;51.482;-0.580;2024-01-30T04:24:38;101942.78;;;10.98
81657;BMP280;71067;51.482;-0.580;2024-01-30T04:27:03;101959.69;;;11.02
81657;BMP280;71067;51.482;-0.580;2024-01-30T04:29:29;101972.13;;;11.08
81657;BMP280;71067;51.482;-0.580;2024-01-30T04:31:54;101939.75;;;10.93
81657;BMP280;71067;51.482;-0.580;2024-01-30T04:34:19;101967.78;;;11.08
81657;BMP280;71067;51.482;-0.580;2024-01-30T04:36:45;101971.56;;;11.04
81657;BMP280;71067;51.482;-0.580;2024-01-30T04:39:11;101971.94;;;11.00
81657;BMP280;71067;51.482;-0.580;2024-01-30T04:41:37;101986.31;;;11.04
81657;BMP280;71067;51.482;-0.580;2024-01-30T04:44:03;101980.13;;;10.95
81657;BMP280;71067;51.482;-0.580;2024-01-30T04:46:28;101996.75;;;10.93
81657;BMP280;71067;51.482;-0.580;2024-01-30T04:48:53;102020.34;;;10.90
81657;BMP280;71067;51.482;-0.580;2024-01-30T04:51:19;102021.00;;;10.82
81657;BMP280;71067;51.482;-0.580;2024-01-30T04:53:44;102029.53;;;10.73
81657;BMP280;71067;51.482;-0.580;2024-01-30T04:56:09;102035.47;;;10.64
81657;BMP280;71067;51.482;-0.580;2024-01-30T04:58:35;102041.38;;;10.55
81657;BMP280;71067;51.482;-0.580;2024-01-30T05:01:01;102039.03;;;10.52
81657;BMP280;71067;51.482;-0.580;2024-01-30T05:03:27;102036.25;;;10.44
81657;BMP280;71067;51.482;-0.580;2024-01-30T05:05:52;102041.72;;;10.41
81657;BMP280;71067;51.482;-0.580;2024-01-30T05:08:17;102045.19;;;10.31
81657;BMP280;71067;51.482;-0.580;2024-01-30T05:10:43;102056.72;;;10.27
81657;BMP280;71067;51.482;-0.580;2024-01-30T05:13:08;102039.97;;;10.10
81657;BMP280;71067;51.482;-0.580;2024-01-30T05:15:33;102034.13;;;9.97
81657;BMP280;71067;51.482;-0.580;2024-01-30T05:17:59;102055.13;;;10.03
81657;BMP280;71067;51.482;-0.580;2024-01-30T05:20:24;102060.56;;;10.00
81657;BMP280;71067;51.482;-0.580;2024-01-30T05:22:53;102069.59;;;9.95
81657;BMP280;71067;51.482;-0.580;2024-01-30T05:25:18;102069.28;;;9.88
81657;BMP280;71067;51.482;-0.580;2024-01-30T05:27:44;102072.09;;;9.85
81657;BMP280;71067;51.482;-0.580;2024-01-30T05:30:10;102076.81;;;9.80
81657;BMP280;71067;51.482;-0.580;2024-01-30T05:32:35;102069.22;;;9.68
81657;BMP280;71067;51.482;-0.580;2024-01-30T05:35:01;102067.78;;;9.64
81657;BMP280;71067;51.482;-0.580;2024-01-30T05:37:27;102080.00;;;9.62
81657;BMP280;71067;51.482;-0.580;2024-01-30T05:39:52;102065.91;;;9.44
81657;BMP280;71067;51.482;-0.580;2024-01-30T05:42:18;102094.59;;;9.52
81657;BMP280;71067;51.482;-0.580;2024-01-30T05:44:43;102108.44;;;9.51
81657;BMP280;71067;51.482;-0.580;2024-01-30T05:47:08;102100.94;;;9.48
81657;BMP280;71067;51.482;-0.580;2024-01-30T05:49:34;102112.94;;;9.49
81657;BMP280;71067;51.482;-0.580;2024-01-30T05:52:01;102112.81;;;9.39
81657;BMP280;71067;51.482;-0.580;2024-01-30T05:54:26;102102.66;;;9.25
81657;BMP280;71067;51.482;-0.580;2024-01-30T05:56:52;102122.19;;;9.40
81657;BMP280;71067;51.482;-0.580;2024-01-30T05:59:17;102121.72;;;9.35
81657;BMP280;71067;51.482;-0.580;2024-01-30T06:01:46;102130.78;;;9.41
81657;BMP280;71067;51.482;-0.580;2024-01-30T06:04:12;102143.94;;;9.38
81657;BMP280;71067;51.482;-0.580;2024-01-30T06:06:38;102133.91;;;9.33
81657;BMP280;71067;51.482;-0.580;2024-01-30T06:09:03;102148.38;;;9.36
81657;BMP280;71067;51.482;-0.580;2024-01-30T06:11:29;102147.25;;;9.40
81657;BMP280;71067;51.482;-0.580;2024-01-30T06:13:54;102152.25;;;9.41
81657;BMP280;71067;51.482;-0.580;2024-01-30T06:16:19;102127.47;;;9.27
81657;BMP280;71067;51.482;-0.580;2024-01-30T06:18:46;102156.63;;;9.41
81657;BMP280;71067;51.482;-0.580;2024-01-30T06:21:12;102168.59;;;9.42
81657;BMP280;71067;51.482;-0.580;2024-01-30T06:23:38;102170.50;;;9.40
81657;BMP280;71067;51.482;-0.580;2024-01-30T06:26:03;102177.53;;;9.38
81657;BMP280;71067;51.482;-0.580;2024-01-30T06:28:29;102187.41;;;9.44
81657;BMP280;71067;51.482;-0.580;2024-01-30T06:30:54;102197.75;;;9.44
81657;BMP280;71067;51.482;-0.580;2024-01-30T06:33:19;102203.16;;;9.41
81657;BMP280;71067;51.482;-0.580;2024-01-30T06:35:45;102204.91;;;9.40
81657;BMP280;71067;51.482;-0.580;2024-01-30T06:38:11;102206.69;;;9.40
81657;BMP280;71067;51.482;-0.580;2024-01-30T06:40:36;102212.66;;;9.40
81657;BMP280;71067;51.482;-0.580;2024-01-30T06:43:03;102218.88;;;9.38
81657;BMP280;71067;51.482;-0.580;2024-01-30T06:45:29;102232.53;;;9.40
81657;BMP280;71067;51.482;-0.580;2024-01-30T06:47:54;102226.75;;;9.36
81657;BMP280;71067;51.482;-0.580;2024-01-30T06:50:19;102215.06;;;9.19
81657;BMP280;71067;51.482;-0.580;2024-01-30T06:52:45;102256.59;;;9.40
81657;BMP280;71067;51.482;-0.580;2024-01-30T06:55:10;102255.81;;;9.40
81657;BMP280;71067;51.482;-0.580;2024-01-30T06:57:36;102255.06;;;9.38
81657;BMP280;71067;51.482;-0.580;2024-01-30T07:00:02;102250.22;;;9.33
81657;BMP280;71067;51.482;-0.580;2024-01-30T07:02:29;102259.66;;;9.45
81657;BMP280;71067;51.482;-0.580;2024-01-30T07:04:54;102266.81;;;9.42
81657;BMP280;71067;51.482;-0.580;2024-01-30T07:07:19;102256.47;;;9.42
81657;BMP280;71067;51.482;-0.580;2024-01-30T07:09:45;102261.66;;;9.42
81657;BMP280;71067;51.482;-0.580;2024-01-30T07:12:10;102260.22;;;9.38
81657;BMP280;71067;51.482;-0.580;2024-01-30T07:14:36;102267.28;;;9.36
81657;BMP280;71067;51.482;-0.580;2024-01-30T07:17:01;102281.88;;;9.37
81657;BMP280;71067;51.482;-0.580;2024-01-30T07:19:27;102294.78;;;9.37
81657;BMP280;71067;51.482;-0.580;2024-01-30T07:21:52;102310.16;;;9.38
81657;BMP280;71067;51.482;-0.580;2024-01-30T07:24:18;102313.69;;;9.37
81657;BMP280;71067;51.482;-0.580;2024-01-30T07:26:43;102315.47;;;9.37
81657;BMP280;71067;51.482;-0.580;2024-01-30T07:29:08;102310.75;;;9.30
81657;BMP280;71067;51.482;-0.580;2024-01-30T07:31:34;102302.28;;;9.28
81657;BMP280;71067;51.482;-0.580;2024-01-30T07:33:59;102307.44;;;9.28
81657;BMP280;71067;51.482;-0.580;2024-01-30T07:36:24;102314.47;;;9.26
81657;BMP280;71067;51.482;-0.580;2024-01-30T07:38:49;102324.56;;;9.29
81657;BMP280;71067;51.482;-0.580;2024-01-30T07:41:15;102328.81;;;9.30
81657;BMP280;71067;51.482;-0.580;2024-01-30T07:43:40;102327.28;;;9.28
81657;BMP280;71067;51.482;-0.580;2024-01-30T07:46:05;102344.66;;;9.26
81657;BMP280;71067;51.482;-0.580;2024-01-30T07:48:33;102357.47;;;9.27
81657;BMP280;71067;51.482;-0.580;2024-01-30T07:50:59;102348.88;;;9.27
81657;BMP280;71067;51.482;-0.580;2024-01-30T07:53:24;102352.72;;;9.21
81657;BMP280;71067;51.482;-0.580;2024-01-30T07:55:50;102365.53;;;9.23
81657;BMP280;71067;51.482;-0.580;2024-01-30T07:58:15;102371.75;;;9.20
81657;BMP280;71067;51.482;-0.580;2024-01-30T08:00:40;102369.38;;;9.17
81657;BMP280;71067;51.482;-0.580;2024-01-30T08:03:06;102381.03;;;9.23
81657;BMP280;71067;51.482;-0.580;2024-01-30T08:05:31;102388.09;;;9.21
81657;BMP280;71067;51.482;-0.580;2024-01-30T08:07:57;102380.25;;;9.22
81657;BMP280;71067;51.482;-0.580;2024-01-30T08:10:22;102396.66;;;9.21
81657;BMP280;71067;51.482;-0.580;2024-01-30T08:12:47;102393.47;;;9.18
81657;BMP280;71067;51.482;-0.580;2024-01-30T08:15:13;102369.75;;;9.00
81657;BMP280;71067;51.482;-0.580;2024-01-30T08:17:39;102400.09;;;9.09
81657;BMP280;71067;51.482;-0.580;2024-01-30T08:20:05;102413.69;;;9.24
81657;BMP280;71067;51.482;-0.580;2024-01-30T08:22:43;102398.22;;;9.11
81657;BMP280;71067;51.482;-0.580;2024-01-30T08:25:08;102417.09;;;9.24
81657;BMP280;71067;51.482;-0.580;2024-01-30T08:27:35;102417.56;;;9.18
81657;BMP280;71067;51.482;-0.580;2024-01-30T08:30:02;102408.34;;;9.14
81657;BMP280;71067;51.482;-0.580;2024-01-30T08:32:28;102440.16;;;9.27
81657;BMP280;71067;51.482;-0.580;2024-01-30T08:34:53;102430.47;;;9.18
81657;BMP280;71067;51.482;-0.580;2024-01-30T08:37:19;102441.53;;;9.20
81657;BMP280;71067;51.482;-0.580;2024-01-30T08:39:44;102457.34;;;9.28
81657;BMP280;71067;51.482;-0.580;2024-01-30T08:42:09;102460.63;;;9.30
81657;BMP280;71067;51.482;-0.580;2024-01-30T08:44:35;102450.50;;;9.27
81657;BMP280;71067;51.482;-0.580;2024-01-30T08:47:00;102469.09;;;9.32
81657;BMP280;71067;51.482;-0.580;2024-01-30T08:49:26;102458.69;;;9.21
81657;BMP280;71067;51.482;-0.580;2024-01-30T08:52:01;102484.00;;;9.29
81657;BMP280;71067;51.482;-0.580;2024-01-30T08:54:26;102478.56;;;9.21
81657;BMP280;71067;51.482;-0.580;2024-01-30T08:56:51;102493.53;;;9.28
81657;BMP280;71067;51.482;-0.580;2024-01-30T08:59:18;102493.94;;;9.22
81657;BMP280;71067;51.482;-0.580;2024-01-30T09:01:44;102490.63;;;9.20
81657;BMP280;71067;51.482;-0.580;2024-01-30T09:04:09;102514.91;;;9.30
81657;BMP280;71067;51.482;-0.580;2024-01-30T09:06:34;102508.06;;;9.29
81657;BMP280;71067;51.482;-0.580;2024-01-30T09:09:00;102503.63;;;9.19
81657;BMP280;71067;51.482;-0.580;2024-01-30T09:11:25;102514.47;;;9.24
81657;BMP280;71067;51.482;-0.580;2024-01-30T09:13:50;102525.44;;;9.27
81657;BMP280;71067;51.482;-0.580;2024-01-30T09:16:16;102524.94;;;9.22
81657;BMP280;71067;51.482;-0.580;2024-01-30T09:18:42;102526.47;;;9.25
81657;BMP280;71067;51.482;-0.580;2024-01-30T09:21:07;102539.19;;;9.28
81657;BMP280;71067;51.482;-0.580;2024-01-30T09:23:35;102521.66;;;9.20
81657;BMP280;71067;51.482;-0.580;2024-01-30T09:26:00;102547.34;;;9.34
81657;BMP280;71067;51.482;-0.580;2024-01-30T09:28:26;102521.00;;;9.17
81657;BMP280;71067;51.482;-0.580;2024-01-30T09:30:52;102539.69;;;9.33
81657;BMP280;71067;51.482;-0.580;2024-01-30T09:33:17;102552.31;;;9.38
81657;BMP280;71067;51.482;-0.580;2024-01-30T09:35:45;102549.00;;;9.36
81657;BMP280;71067;51.482;-0.580;2024-01-30T09:38:14;102562.56;;;9.39
81657;BMP280;71067;51.482;-0.580;2024-01-30T09:40:53;102572.28;;;9.48
81657;BMP280;71067;51.482;-0.580;2024-01-30T09:43:33;102551.41;;;9.39
81657;BMP280;71067;51.482;-0.580;2024-01-30T09:46:00;102580.53;;;9.53
81657;BMP280;71067;51.482;-0.580;2024-01-30T09:48:27;102583.75;;;9.57
81657;BMP280;71067;51.482;-0.580;2024-01-30T09:50:54;102578.97;;;9.51
81657;BMP280;71067;51.482;-0.580;2024-01-30T09:53:21;102578.78;;;9.54
81657;BMP280;71067;51.482;-0.580;2024-01-30T09:55:50;102561.63;;;9.40
81657;BMP280;71067;51.482;-0.580;2024-01-30T09:58:16;102604.94;;;9.62
81657;BMP280;71067;51.482;-0.580;2024-01-30T10:00:41;102606.09;;;9.58
81657;BMP280;71067;51.482;-0.580;2024-01-30T10:03:08;102613.59;;;9.61
81657;BMP280;71067;51.482;-0.580;2024-01-30T10:05:35;102614.66;;;9.58
81657;BMP280;71067;51.482;-0.580;2024-01-30T10:08:06;102623.94;;;9.61
81657;BMP280;71067;51.482;-0.580;2024-01-30T10:10:31;102610.75;;;9.53
81657;BMP280;71067;51.482;-0.580;2024-01-30T10:12:57;102619.22;;;9.55
81657;BMP280;71067;51.482;-0.580;2024-01-30T10:15:22;102581.19;;;9.32
81657;BMP280;71067;51.482;-0.580;2024-01-30T10:17:52;102630.06;;;9.60
81657;BMP280;71067;51.482;-0.580;2024-01-30T10:20:17;102638.44;;;9.63
81657;BMP280;71067;51.482;-0.580;2024-01-30T10:22:47;102626.03;;;9.56
81657;BMP280;71067;51.482;-0.580;2024-01-30T10:25:13;102648.50;;;9.55
81657;BMP280;71067;51.482;-0.580;2024-01-30T10:27:39;102649.75;;;9.50
81657;BMP280;71067;51.482;-0.580;2024-01-30T10:30:05;102664.03;;;9.55
81657;BMP280;71067;51.482;-0.580;2024-01-30T10:32:31;102663.38;;;9.52
81657;BMP280;71067;51.482;-0.580;2024-01-30T10:34:56;102679.31;;;9.58
81657;BMP280;71067;51.482;-0.580;2024-01-30T10:37:25;102684.47;;;9.58
81657;BMP280;71067;51.482;-0.580;2024-01-30T10:39:53;102681.09;;;9.58
81657;BMP280;71067;51.482;-0.580;2024-01-30T10:42:20;102692.47;;;9.55
81657;BMP280;71067;51.482;-0.580;2024-01-30T10:44:58;102705.28;;;9.57
81657;BMP280;71067;51.482;-0.580;2024-01-30T10:47:29;102702.59;;;9.58
81657;BMP280;71067;51.482;-0.580;2024-01-30T10:49:55;102698.66;;;9.53
81657;BMP280;71067;51.482;-0.580;2024-01-30T10:52:23;102718.09;;;9.58
81657;BMP280;71067;51.482;-0.580;2024-01-30T10:54:54;102718.50;;;9.52
81657;BMP280;71067;51.482;-0.580;2024-01-30T10:57:19;102730.59;;;9.52
81657;BMP280;71067;51.482;-0.580;2024-01-30T10:59:46;102713.09;;;9.43
81657;BMP280;71067;51.482;-0.580;2024-01-30T11:02:12;102709.81;;;9.41
81657;BMP280;71067;51.482;-0.580;2024-01-30T11:04:40;102741.66;;;9.54
81657;BMP280;71067;51.482;-0.580;2024-01-30T11:07:23;102712.78;;;9.34
81657;BMP280;71067;51.482;-0.580;2024-01-30T11:12:29;102729.16;;;9.48
81657;BMP280;71067;51.482;-0.580;2024-01-30T11:20:29;102736.31;;;9.57
81657;BMP280;71067;51.482;-0.580;2024-01-30T11:22:59;102742.63;;;9.53
81657;BMP280;71067;51.482;-0.580;2024-01-30T11:25:25;102746.66;;;9.57
81657;BMP280;71067;51.482;-0.580;2024-01-30T11:27:52;102760.28;;;9.59
81657;BMP280;71067;51.482;-0.580;2024-01-30T11:33:13;102757.41;;;9.63
81657;BMP280;71067;51.482;-0.580;2024-01-30T11:35:43;102753.25;;;9.61
81657;BMP280;71067;51.482;-0.580;2024-01-30T11:38:11;102759.06;;;9.64
81657;BMP280;71067;51.482;-0.580;2024-01-30T11:40:40;102749.94;;;9.59
81657;BMP280;71067;51.482;-0.580;2024-01-30T11:43:07;102749.75;;;9.49
81657;BMP280;71067;51.482;-0.580;2024-01-30T11:45:33;102760.50;;;9.56
81657;BMP280;71067;51.482;-0.580;2024-01-30T11:48:00;102761.13;;;9.59
81657;BMP280;71067;51.482;-0.580;2024-01-30T11:50:26;102754.72;;;9.52
81657;BMP280;71067;51.482;-0.580;2024-01-30T11:52:54;102764.75;;;9.57
81657;BMP280;71067;51.482;-0.580;2024-01-30T11:55:19;102773.13;;;9.60
81657;BMP280;71067;51.482;-0.580;2024-01-30T11:57:45;102773.22;;;9.59
81657;BMP280;71067;51.482;-0.580;2024-01-30T12:00:14;102768.25;;;9.56
81657;BMP280;71067;51.482;-0.580;2024-01-30T12:02:41;102760.50;;;9.56
81657;BMP280;71067;51.482;-0.580;2024-01-30T12:05:07;102779.22;;;9.59
81657;BMP280;71067;51.482;-0.580;2024-01-30T12:07:32;102780.06;;;9.60
81657;BMP280;71067;51.482;-0.580;2024-01-30T12:09:58;102785.13;;;9.61
81657;BMP280;71067;51.482;-0.580;2024-01-30T12:12:37;102787.69;;;9.61
81657;BMP280;71067;51.482;-0.580;2024-01-30T12:15:07;102794.63;;;9.61
81657;BMP280;71067;51.482;-0.580;2024-01-30T12:17:34;102800.84;;;9.58
81657;BMP280;71067;51.482;-0.580;2024-01-30T12:20:09;102806.81;;;9.59
81657;BMP280;71067;51.482;-0.580;2024-01-30T12:22:40;102790.47;;;9.46
81657;BMP280;71067;51.482;-0.580;2024-01-30T12:25:22;102809.00;;;9.52
81657;BMP280;71067;51.482;-0.580;2024-01-30T12:27:49;102805.06;;;9.47
81657;BMP280;71067;51.482;-0.580;2024-01-30T12:30:16;102805.81;;;9.49
81657;BMP280;71067;51.482;-0.580;2024-01-30T12:32:44;102802.66;;;9.44
81657;BMP280;71067;51.482;-0.580;2024-01-30T12:35:10;102811.88;;;9.48
81657;BMP280;71067;51.482;-0.580;2024-01-30T12:37:37;102816.44;;;9.44
81657;BMP280;71067;51.482;-0.580;2024-01-30T12:40:02;102813.34;;;9.39
81657;BMP280;71067;51.482;-0.580;2024-01-30T12:42:29;102817.47;;;9.42
81657;BMP280;71067;51.482;-0.580;2024-01-30T12:44:57;102809.81;;;9.40
81657;BMP280;71067;51.482;-0.580;2024-01-30T12:47:22;102823.34;;;9.44
81657;BMP280;71067;51.482;-0.580;2024-01-30T12:49:48;102826.78;;;9.44
81657;BMP280;71067;51.482;-0.580;2024-01-30T12:52:25;102813.59;;;9.34
81657;BMP280;71067;51.482;-0.580;2024-01-30T12:54:51;102837.00;;;9.46
81657;BMP280;71067;51.482;-0.580;2024-01-30T12:57:17;102819.41;;;9.38
81657;BMP280;71067;51.482;-0.580;2024-01-30T12:59:45;102823.34;;;9.44
81657;BMP280;71067;51.482;-0.580;2024-01-30T13:02:12;102840.44;;;9.46
81657;BMP280;71067;51.482;-0.580;2024-01-30T13:04:38;102818.75;;;9.34
81657;BMP280;71067;51.482;-0.580;2024-01-30T13:07:03;102837.19;;;9.43
81657;BMP280;71067;51.482;-0.580;2024-01-30T13:09:32;102842.19;;;9.46
81657;BMP280;71067;51.482;-0.580;2024-01-30T13:11:58;102852.53;;;9.46
81657;BMP280;71067;51.482;-0.580;2024-01-30T13:14:29;102855.22;;;9.44
81657;BMP280;71067;51.482;-0.580;2024-01-30T13:16:55;102853.47;;;9.45
81657;BMP280;71067;51.482;-0.580;2024-01-30T13:19:20;102857.50;;;9.49
81657;BMP280;71067;51.482;-0.580;2024-01-30T13:21:46;102846.09;;;9.39
81657;BMP280;71067;51.482;-0.580;2024-01-30T13:24:13;102861.22;;;9.45
81657;BMP280;71067;51.482;-0.580;2024-01-30T13:26:38;102842.25;;;9.32
81657;BMP280;71067;51.482;-0.580;2024-01-30T13:29:04;102838.72;;;9.32
81657;BMP280;71067;51.482;-0.580;2024-01-30T13:31:30;102841.72;;;9.26
81657;BMP280;71067;51.482;-0.580;2024-01-30T13:33:55;102863.03;;;9.43
81657;BMP280;71067;51.482;-0.580;2024-01-30T13:36:21;102856.53;;;9.37
81657;BMP280;71067;51.482;-0.580;2024-01-30T13:38:47;102865.38;;;9.47
81657;BMP280;71067;51.482;-0.580;2024-01-30T13:41:12;102865.38;;;9.47
81657;BMP280;71067;51.482;-0.580;2024-01-30T13:43:38;102878.72;;;9.54
81657;BMP280;71067;51.482;-0.580;2024-01-30T13:46:03;102862.69;;;9.49
81657;BMP280;71067;51.482;-0.580;2024-01-30T13:48:29;102882.56;;;9.61
81657;BMP280;71067;51.482;-0.580;2024-01-30T13:50:55;102878.22;;;9.61
81657;BMP280;71067;51.482;-0.580;2024-01-30T13:53:20;102862.28;;;9.55
81657;BMP280;71067;51.482;-0.580;2024-01-30T13:55:46;102878.16;;;9.63
81657;BMP280;71067;51.482;-0.580;2024-01-30T13:58:12;102882.38;;;9.64